CheckWX is a tool to help pilots better visualize weather data.  It is not intended as a substitute for an official pre-flight weather briefing.

21:45:22 UTC

KEZF METAR
Shannon Airport
Fredericksburg, Virginia, USA
Current

30 mins ago

KEZF 082115Z AUTO 00000KT 10SM SCT080 BKN100 BKN120 22/20 A2956 RMK AO2 T02190204
Observed
Apr-8 @ 21:15 UTC
Visibility
Flight Rules
VFR
Cloud Levels
  • Scattered at 8,000' AGL
  • Broken at 10,000' AGL
  • Broken at 12,000' AGL
Temperature
22°C / 72°F
Dewpoint
20°C / 68°F
Humidity
88%
Altimeter
29.56" Hg
Pressure
1001.02 hPa
Previous

50 mins ago

KEZF 082055Z AUTO 00000KT 10SM SCT080 BKN110 23/20 A2956 RMK AO2 T02260197
Observed
Apr-8 @ 20:55 UTC
Visibility
Flight Rules
VFR
Cloud Levels
  • Scattered at 8,000' AGL
  • Broken at 11,000' AGL
Temperature
23°C / 73°F
Dewpoint
20°C / 68°F
Humidity
83%
Altimeter
29.56" Hg
Pressure
1001.02 hPa
Previous

1 hour ago

KEZF 082035Z AUTO 20005KT 10SM SCT075 BKN090 BKN110 24/18 A2957 RMK AO2 T02350175
Observed
Apr-8 @ 20:35 UTC
Wind
  • 200° at 5 KTS
Visibility
Flight Rules
VFR
Cloud Levels
  • Scattered at 7,500' AGL
  • Broken at 9,000' AGL
  • Broken at 11,000' AGL
Temperature
24°C / 75°F
Dewpoint
18°C / 64°F
Humidity
69%
Altimeter
29.57" Hg
Pressure
1001.32 hPa